PWSweather.com
Personal Weather Stations
Station Observations
CW4114
Near Downtown, Rogers City, MI 49779

Near DowntownRogers City, MI 49779

Lat: 45.417443, Lon: -83.810642

Elevation: 605

Station Type: Davis Vantage Pro2 w/Solar

Latest ConditionsUpdated 3:02:46 PM EDT Thursday, Oct 23, 2014
Currently Today's Max Today's Min Today's Average
Temperature 50.5°F10.3°C 51.1°F10.6°C 33.4°F0.8°C 39.7°F4.3°C
Dew Point 42.3°F5.7°C 42.4°F5.8°C 32.4°F0.2°C 36.1°F2.3°C
Winds 4.9 mph E7.9 kmh E 4.9 mph ENE7.9 kmh ENE - 2.9 mph 4.7 kmh
Wind Gusts 8.1 mph13.0 kmh 9.0 mph14.5 kmh - -
Humidity 73% 97% 69% 88%
Pressure 30.15 in1021.0 mb 30.30 in1026.1 mb 30.15 in1021.0 mb -
Hour Temp Dew Point Humidity Winds Wind Gusts Pressure Precip Precip Rate Daily Precip Total
03:02 PM 50.5°F10.3°C 42.3°F5.7°C 73% 4.9 mph E7.9 kmh E 8.1 mph13.0 kmh 30.15 in1021.0 mb 0.00 in0.0 mm 0.00 in/hr0.0 mm/hr 0.00 in0.0 mm
02:57 PM 50.4°F10.2°C 41.7°F5.4°C 72% 4.9 mph E7.9 kmh E 8.1 mph13.0 kmh 30.16 in1021.3 mb 0.00 in0.0 mm 0.00 in/hr0.0 mm/hr 0.00 in0.0 mm
02:52 PM 50.5°F10.3°C 41.5°F5.3°C 71% 4.9 mph E7.9 kmh E 8.1 mph13.0 kmh 30.16 in1021.3 mb 0.00 in0.0 mm 0.00 in/hr0.0 mm/hr 0.00 in0.0 mm
02:47 PM 50.5°F10.3°C 41.5°F5.3°C 71% 4.9 mph NE7.9 kmh NE 6.9 mph11.1 kmh 30.16 in1021.3 mb 0.00 in0.0 mm 0.00 in/hr0.0 mm/hr 0.00 in0.0 mm
02:42 PM 51.1°F10.6°C 42.4°F5.8°C 72% 4.0 mph E6.4 kmh E 8.1 mph13.0 kmh 30.16 in1021.3 mb 0.00 in0.0 mm 0.00 in/hr0.0 mm/hr 0.00 in0.0 mm
02:37 PM 50.7°F10.4°C 41.7°F5.4°C 71% 4.0 mph E6.4 kmh E 9.0 mph14.5 kmh 30.16 in1021.3 mb 0.00 in0.0 mm 0.00 in/hr0.0 mm/hr 0.00 in0.0 mm
02:32 PM 50.5°F10.3°C 41.2°F5.1°C 70% 4.0 mph ENE6.4 kmh ENE 6.9 mph11.1 kmh 30.16 in1021.3 mb 0.00 in0.0 mm 0.00 in/hr0.0 mm/hr 0.00 in0.0 mm
02:27 PM 50.9°F10.5°C 41.9°F5.5°C 71% 4.0 mph ESE6.4 kmh ESE 6.9 mph11.1 kmh 30.16 in1021.3 mb 0.00 in0.0 mm 0.00 in/hr0.0 mm/hr 0.00 in0.0 mm
02:22 PM 51.1°F10.6°C 42.1°F5.6°C 71% 4.0 mph ENE6.4 kmh ENE 6.9 mph11.1 kmh 30.16 in1021.3 mb 0.00 in0.0 mm 0.00 in/hr0.0 mm/hr 0.00 in0.0 mm
02:17 PM 51.1°F10.6°C 42.4°F5.8°C 72% 4.0 mph E6.4 kmh E 6.0 mph9.7 kmh 30.16 in1021.3 mb 0.00 in0.0 mm 0.00 in/hr0.0 mm/hr 0.00 in0.0 mm
02:12 PM 50.5°F10.3°C 41.2°F5.1°C 70% 4.9 mph ENE7.9 kmh ENE 8.1 mph13.0 kmh 30.17 in1021.7 mb 0.00 in0.0 mm 0.00 in/hr0.0 mm/hr 0.00 in0.0 mm
02:07 PM 50.7°F10.4°C 41.4°F5.2°C 70% 4.9 mph NE7.9 kmh NE 6.9 mph11.1 kmh 30.17 in1021.7 mb 0.00 in0.0 mm 0.00 in/hr0.0 mm/hr 0.00 in0.0 mm
02:02 PM 50.5°F10.3°C 41.5°F5.3°C 71% 4.0 mph ENE6.4 kmh ENE 8.1 mph13.0 kmh 30.17 in1021.7 mb 0.00 in0.0 mm 0.00 in/hr0.0 mm/hr 0.00 in0.0 mm
01:57 PM 50.5°F10.3°C 41.2°F5.1°C 70% 2.9 mph ENE4.7 kmh ENE 6.9 mph11.1 kmh 30.18 in1022.0 mb 0.00 in0.0 mm 0.00 in/hr0.0 mm/hr 0.00 in0.0 mm
01:52 PM 49.6°F9.8°C 41.0°F5.0°C 72% 2.9 mph NE4.7 kmh NE 7.0 mph11.3 kmh 30.18 in1022.0 mb 0.00 in0.0 mm 0.00 in/hr0.0 mm/hr 0.00 in0.0 mm
01:47 PM 49.5°F9.7°C 40.5°F4.7°C 71% 2.9 mph ENE4.7 kmh ENE 6.0 mph9.7 kmh 30.18 in1022.0 mb 0.00 in0.0 mm 0.00 in/hr0.0 mm/hr 0.00 in0.0 mm
01:42 PM 50.2°F10.1°C 40.8°F4.9°C 70% 2.9 mph NE4.7 kmh NE 6.9 mph11.1 kmh 30.18 in1022.0 mb 0.00 in0.0 mm 0.00 in/hr0.0 mm/hr 0.00 in0.0 mm
01:37 PM 49.8°F9.9°C 40.8°F4.9°C 71% 4.0 mph NE6.4 kmh NE 6.0 mph9.7 kmh 30.18 in1022.0 mb 0.00 in0.0 mm 0.00 in/hr0.0 mm/hr 0.00 in0.0 mm
01:32 PM 49.8°F9.9°C 41.2°F5.1°C 72% 4.0 mph NE6.4 kmh NE 6.9 mph11.1 kmh 30.19 in1022.4 mb 0.00 in0.0 mm 0.00 in/hr0.0 mm/hr 0.00 in0.0 mm
01:27 PM 49.1°F9.5°C 40.5°F4.7°C 72% 4.0 mph NNE6.4 kmh NNE 6.0 mph9.7 kmh 30.19 in1022.4 mb 0.00 in0.0 mm 0.00 in/hr0.0 mm/hr 0.00 in0.0 mm
01:22 PM 49.5°F9.7°C 40.1°F4.5°C 70% 2.9 mph NE4.7 kmh NE 7.0 mph11.3 kmh 30.19 in1022.4 mb 0.00 in0.0 mm 0.00 in/hr0.0 mm/hr 0.00 in0.0 mm
01:17 PM 50.7°F10.4°C 41.7°F5.4°C 71% 2.9 mph NE4.7 kmh NE 6.0 mph9.7 kmh 30.19 in1022.4 mb 0.00 in0.0 mm 0.00 in/hr0.0 mm/hr 0.00 in0.0 mm
01:12 PM 50.5°F10.3°C 41.9°F5.5°C 72% 2.9 mph NNE4.7 kmh NNE 6.9 mph11.1 kmh 30.20 in1022.7 mb 0.00 in0.0 mm 0.00 in/hr0.0 mm/hr 0.00 in0.0 mm
01:07 PM 50.4°F10.2°C 42.1°F5.6°C 73% 4.0 mph ENE6.4 kmh ENE 6.0 mph9.7 kmh 30.20 in1022.7 mb 0.00 in0.0 mm 0.00 in/hr0.0 mm/hr 0.00 in0.0 mm
01:02 PM 49.8°F9.9°C 41.2°F5.1°C 72% 4.0 mph ENE6.4 kmh ENE 6.0 mph9.7 kmh 30.20 in1022.7 mb 0.00 in0.0 mm 0.00 in/hr0.0 mm/hr 0.00 in0.0 mm
12:57 PM 49.6°F9.8°C 41.0°F5.0°C 72% 4.0 mph NE6.4 kmh NE 6.0 mph9.7 kmh 30.20 in1022.7 mb 0.00 in0.0 mm 0.00 in/hr0.0 mm/hr 0.00 in0.0 mm
12:52 PM 50.0°F10.0°C 41.0°F5.0°C 71% 4.0 mph NE6.4 kmh NE 6.0 mph9.7 kmh 30.21 in1023.0 mb 0.00 in0.0 mm 0.00 in/hr0.0 mm/hr 0.00 in0.0 mm
12:47 PM 50.2°F10.1°C 40.8°F4.9°C 70% 4.0 mph NE6.4 kmh NE 6.0 mph9.7 kmh 30.21 in1023.0 mb 0.00 in0.0 mm 0.00 in/hr0.0 mm/hr 0.00 in0.0 mm
12:42 PM 49.6°F9.8°C 41.0°F5.0°C 72% 4.0 mph E6.4 kmh E 6.0 mph9.7 kmh 30.21 in1023.0 mb 0.00 in0.0 mm 0.00 in/hr0.0 mm/hr 0.00 in0.0 mm
12:37 PM 49.5°F9.7°C 40.8°F4.9°C 72% 4.0 mph ENE6.4 kmh ENE 6.9 mph11.1 kmh 30.21 in1023.0 mb 0.00 in0.0 mm 0.00 in/hr0.0 mm/hr 0.00 in0.0 mm
12:32 PM 49.6°F9.8°C 40.6°F4.8°C 71% 4.0 mph NE6.4 kmh NE 6.9 mph11.1 kmh 30.21 in1023.0 mb 0.00 in0.0 mm 0.00 in/hr0.0 mm/hr 0.00 in0.0 mm
12:27 PM 50.2°F10.1°C 41.2°F5.1°C 71% 4.0 mph ENE6.4 kmh ENE 6.9 mph11.1 kmh 30.21 in1023.0 mb 0.00 in0.0 mm 0.00 in/hr0.0 mm/hr 0.00 in0.0 mm
12:22 PM 50.2°F10.1°C 41.2°F5.1°C 71% 2.9 mph ENE4.7 kmh ENE 6.9 mph11.1 kmh 30.21 in1023.0 mb 0.00 in0.0 mm 0.00 in/hr0.0 mm/hr 0.00 in0.0 mm
12:17 PM 50.4°F10.2°C 41.7°F5.4°C 72% 0.9 mph ENE1.4 kmh ENE 6.9 mph11.1 kmh 30.21 in1023.0 mb 0.00 in0.0 mm 0.00 in/hr0.0 mm/hr 0.00 in0.0 mm
12:12 PM 50.0°F10.0°C 40.6°F4.8°C 70% Calm Calm 3.0 mph4.8 kmh 30.21 in1023.0 mb 0.00 in0.0 mm 0.00 in/hr0.0 mm/hr 0.00 in0.0 mm
12:07 PM 50.4°F10.2°C 40.6°F4.8°C 69% Calm Calm 2.0 mph3.2 kmh 30.22 in1023.4 mb 0.00 in0.0 mm 0.00 in/hr0.0 mm/hr 0.00 in0.0 mm
12:02 PM 49.8°F9.9°C 40.5°F4.7°C 70% 0.9 mph NNW1.4 kmh NNW 2.9 mph4.7 kmh 30.22 in1023.4 mb 0.00 in0.0 mm 0.00 in/hr0.0 mm/hr 0.00 in0.0 mm
11:57 AM 49.8°F9.9°C 40.5°F4.7°C 70% 0.9 mph ESE1.4 kmh ESE 2.9 mph4.7 kmh 30.22 in1023.4 mb 0.00 in0.0 mm 0.00 in/hr0.0 mm/hr 0.00 in0.0 mm
11:52 AM 50.0°F10.0°C 40.3°F4.6°C 69% 0.9 mph NNW1.4 kmh NNW 4.0 mph6.4 kmh 30.21 in1023.0 mb 0.00 in0.0 mm 0.00 in/hr0.0 mm/hr 0.00 in0.0 mm
11:47 AM 49.3°F9.6°C 40.3°F4.6°C 71% 2.0 mph N3.2 kmh N 4.0 mph6.4 kmh 30.21 in1023.0 mb 0.00 in0.0 mm 0.00 in/hr0.0 mm/hr 0.00 in0.0 mm
11:42 AM 48.9°F9.4°C 40.3°F4.6°C 72% 2.9 mph WSW4.7 kmh WSW 6.0 mph9.7 kmh 30.21 in1023.0 mb 0.00 in0.0 mm 0.00 in/hr0.0 mm/hr 0.00 in0.0 mm
11:37 AM 49.3°F9.6°C 40.3°F4.6°C 71% 2.0 mph W3.2 kmh W 6.0 mph9.7 kmh 30.22 in1023.4 mb 0.00 in0.0 mm 0.00 in/hr0.0 mm/hr 0.00 in0.0 mm
11:32 AM 49.3°F9.6°C 40.3°F4.6°C 71% 2.0 mph NW3.2 kmh NW 4.9 mph7.9 kmh 30.22 in1023.4 mb 0.00 in0.0 mm 0.00 in/hr0.0 mm/hr 0.00 in0.0 mm
11:27 AM 48.9°F9.4°C 40.6°F4.8°C 73% 2.0 mph WNW3.2 kmh WNW 4.0 mph6.4 kmh 30.22 in1023.4 mb 0.00 in0.0 mm 0.00 in/hr0.0 mm/hr 0.00 in0.0 mm
11:22 AM 48.6°F9.2°C 39.9°F4.4°C 72% 2.9 mph WSW4.7 kmh WSW 6.0 mph9.7 kmh 30.22 in1023.4 mb 0.00 in0.0 mm 0.00 in/hr0.0 mm/hr 0.00 in0.0 mm
11:17 AM 48.9°F9.4°C 41.4°F5.2°C 75% 2.0 mph W3.2 kmh W 6.9 mph11.1 kmh 30.22 in1023.4 mb 0.00 in0.0 mm 0.00 in/hr0.0 mm/hr 0.00 in0.0 mm
11:12 AM 48.0°F8.9°C 40.5°F4.7°C 75% 2.9 mph W4.7 kmh W 8.1 mph13.0 kmh 30.23 in1023.7 mb 0.00 in0.0 mm 0.00 in/hr0.0 mm/hr 0.00 in0.0 mm
11:07 AM 47.8°F8.8°C 40.3°F4.6°C 75% 4.0 mph SW6.4 kmh SW 6.9 mph11.1 kmh 30.23 in1023.7 mb 0.00 in0.0 mm 0.00 in/hr0.0 mm/hr 0.00 in0.0 mm
11:02 AM 48.2°F9.0°C 41.0°F5.0°C 76% 2.9 mph W4.7 kmh W 8.1 mph13.0 kmh 30.23 in1023.7 mb 0.00 in0.0 mm 0.00 in/hr0.0 mm/hr 0.00 in0.0 mm
10:57 AM 47.7°F8.7°C 40.8°F4.9°C 77% 2.0 mph W3.2 kmh W 7.0 mph11.3 kmh 30.23 in1023.7 mb 0.00 in0.0 mm 0.00 in/hr0.0 mm/hr 0.00 in0.0 mm
10:52 AM 47.1°F8.4°C 41.0°F5.0°C 79% 2.9 mph WSW4.7 kmh WSW 6.0 mph9.7 kmh 30.24 in1024.0 mb 0.00 in0.0 mm 0.00 in/hr0.0 mm/hr 0.00 in0.0 mm
10:47 AM 46.8°F8.2°C 41.0°F5.0°C 80% 4.0 mph W6.4 kmh W 6.9 mph11.1 kmh 30.24 in1024.0 mb 0.00 in0.0 mm 0.00 in/hr0.0 mm/hr 0.00 in0.0 mm
10:42 AM 46.0°F7.8°C 40.3°F4.6°C 80% 4.9 mph W7.9 kmh W 8.9 mph14.3 kmh 30.24 in1024.0 mb 0.00 in0.0 mm 0.00 in/hr0.0 mm/hr 0.00 in0.0 mm
10:37 AM 45.7°F7.6°C 40.5°F4.7°C 82% 4.0 mph WSW6.4 kmh WSW 9.0 mph14.5 kmh 30.24 in1024.0 mb 0.00 in0.0 mm 0.00 in/hr0.0 mm/hr 0.00 in0.0 mm
10:32 AM 45.3°F7.4°C 40.5°F4.7°C 83% 4.9 mph WSW7.9 kmh WSW 9.0 mph14.5 kmh 30.24 in1024.0 mb 0.00 in0.0 mm 0.00 in/hr0.0 mm/hr 0.00 in0.0 mm
10:27 AM 44.8°F7.1°C 40.3°F4.6°C 84% 4.9 mph SW7.9 kmh SW 9.0 mph14.5 kmh 30.24 in1024.0 mb 0.00 in0.0 mm 0.00 in/hr0.0 mm/hr 0.00 in0.0 mm
10:22 AM 44.4°F6.9°C 39.9°F4.4°C 84% 4.9 mph WSW7.9 kmh WSW 9.0 mph14.5 kmh 30.24 in1024.0 mb 0.00 in0.0 mm 0.00 in/hr0.0 mm/hr 0.00 in0.0 mm
10:17 AM 43.9°F6.6°C 39.4°F4.1°C 84% 4.9 mph WSW7.9 kmh WSW 8.1 mph13.0 kmh 30.24 in1024.0 mb 0.00 in0.0 mm 0.00 in/hr0.0 mm/hr 0.00 in0.0 mm
10:12 AM 43.7°F6.5°C 39.2°F4.0°C 84% 4.0 mph W6.4 kmh W 6.9 mph11.1 kmh 30.24 in1024.0 mb 0.00 in0.0 mm 0.00 in/hr0.0 mm/hr 0.00 in0.0 mm
10:07 AM 43.5°F6.4°C 39.4°F4.1°C 85% 2.9 mph W4.7 kmh W 6.9 mph11.1 kmh 30.24 in1024.0 mb 0.00 in0.0 mm 0.00 in/hr0.0 mm/hr 0.00 in0.0 mm
10:02 AM 43.2°F6.2°C 39.2°F4.0°C 86% 2.9 mph WSW4.7 kmh WSW 4.9 mph7.9 kmh 30.24 in1024.0 mb 0.00 in0.0 mm 0.00 in/hr0.0 mm/hr 0.00 in0.0 mm
09:57 AM 42.6°F5.9°C 39.0°F3.9°C 87% 4.0 mph W6.4 kmh W 6.0 mph9.7 kmh 30.24 in1024.0 mb 0.00 in0.0 mm 0.00 in/hr0.0 mm/hr 0.00 in0.0 mm
09:52 AM 42.3°F5.7°C 38.7°F3.7°C 87% 2.9 mph WSW4.7 kmh WSW 6.0 mph9.7 kmh 30.24 in1024.0 mb 0.00 in0.0 mm 0.00 in/hr0.0 mm/hr 0.00 in0.0 mm
09:47 AM 41.9°F5.5°C 38.7°F3.7°C 88% 2.9 mph W4.7 kmh W 4.9 mph7.9 kmh 30.24 in1024.0 mb 0.00 in0.0 mm 0.00 in/hr0.0 mm/hr 0.00 in0.0 mm
09:42 AM 41.4°F5.2°C 38.3°F3.5°C 89% 2.9 mph WSW4.7 kmh WSW 6.0 mph9.7 kmh 30.24 in1024.0 mb 0.00 in0.0 mm 0.00 in/hr0.0 mm/hr 0.00 in0.0 mm
09:37 AM 40.6°F4.8°C 37.9°F3.3°C 90% 2.9 mph WSW4.7 kmh WSW 6.0 mph9.7 kmh 30.24 in1024.0 mb 0.00 in0.0 mm 0.00 in/hr0.0 mm/hr 0.00 in0.0 mm
09:32 AM 40.3°F4.6°C 37.6°F3.1°C 90% 2.0 mph WSW3.2 kmh WSW 6.0 mph9.7 kmh 30.23 in1023.7 mb 0.00 in0.0 mm 0.00 in/hr0.0 mm/hr 0.00 in0.0 mm
09:27 AM 39.6°F4.2°C 37.2°F2.9°C 91% 2.0 mph WSW3.2 kmh WSW 4.9 mph7.9 kmh 30.24 in1024.0 mb 0.00 in0.0 mm 0.00 in/hr0.0 mm/hr 0.00 in0.0 mm
09:22 AM 39.0°F3.9°C 36.7°F2.6°C 91% 2.9 mph WSW4.7 kmh WSW 4.0 mph6.4 kmh 30.24 in1024.0 mb 0.00 in0.0 mm 0.00 in/hr0.0 mm/hr 0.00 in0.0 mm
09:17 AM 38.5°F3.6°C 36.3°F2.4°C 92% 2.9 mph SW4.7 kmh SW 6.0 mph9.7 kmh 30.24 in1024.0 mb 0.00 in0.0 mm 0.00 in/hr0.0 mm/hr 0.00 in0.0 mm
09:12 AM 37.9°F3.3°C 36.1°F2.3°C 93% 2.0 mph SW3.2 kmh SW 4.9 mph7.9 kmh 30.24 in1024.0 mb 0.00 in0.0 mm 0.00 in/hr0.0 mm/hr 0.00 in0.0 mm
09:07 AM 37.2°F2.9°C 35.6°F2.0°C 94% 2.9 mph WSW4.7 kmh WSW 6.0 mph9.7 kmh 30.24 in1024.0 mb 0.00 in0.0 mm 0.00 in/hr0.0 mm/hr 0.00 in0.0 mm
09:02 AM 36.1°F2.3°C 35.1°F1.7°C 96% 2.9 mph SW4.7 kmh SW 7.0 mph11.3 kmh 30.24 in1024.0 mb 0.00 in0.0 mm 0.00 in/hr0.0 mm/hr 0.00 in0.0 mm
08:57 AM 35.6°F2.0°C 34.5°F1.4°C 96% 2.9 mph WSW4.7 kmh WSW 6.0 mph9.7 kmh 30.25 in1024.4 mb 0.00 in0.0 mm 0.00 in/hr0.0 mm/hr 0.00 in0.0 mm
08:52 AM 35.2°F1.8°C 34.2°F1.2°C 96% 2.9 mph SSW4.7 kmh SSW 4.9 mph7.9 kmh 30.25 in1024.4 mb 0.00 in0.0 mm 0.00 in/hr0.0 mm/hr 0.00 in0.0 mm
08:47 AM 35.1°F1.7°C 34.0°F1.1°C 96% 2.9 mph WSW4.7 kmh WSW 4.9 mph7.9 kmh 30.25 in1024.4 mb 0.00 in0.0 mm 0.00 in/hr0.0 mm/hr 0.00 in0.0 mm
08:42 AM 34.9°F1.6°C 33.8°F1.0°C 96% 2.9 mph SW4.7 kmh SW 4.9 mph7.9 kmh 30.25 in1024.4 mb 0.00 in0.0 mm 0.00 in/hr0.0 mm/hr 0.00 in0.0 mm
08:37 AM 34.5°F1.4°C 33.8°F1.0°C 97% 2.9 mph SW4.7 kmh SW 4.9 mph7.9 kmh 30.25 in1024.4 mb 0.00 in0.0 mm 0.00 in/hr0.0 mm/hr 0.00 in0.0 mm
08:32 AM 34.3°F1.3°C 33.6°F0.9°C 97% 2.9 mph SW4.7 kmh SW 6.0 mph9.7 kmh 30.25 in1024.4 mb 0.00 in0.0 mm 0.00 in/hr0.0 mm/hr 0.00 in0.0 mm
08:27 AM 34.2°F1.2°C 33.1°F0.6°C 96% 2.9 mph WSW4.7 kmh WSW 4.9 mph7.9 kmh 30.24 in1024.0 mb 0.00 in0.0 mm 0.00 in/hr0.0 mm/hr 0.00 in0.0 mm
08:22 AM 34.2°F1.2°C 33.1°F0.6°C 96% 2.9 mph WSW4.7 kmh WSW 4.9 mph7.9 kmh 30.25 in1024.4 mb 0.00 in0.0 mm 0.00 in/hr0.0 mm/hr 0.00 in0.0 mm
08:17 AM 34.2°F1.2°C 33.1°F0.6°C 96% 2.9 mph WSW4.7 kmh WSW 5.0 mph8.0 kmh 30.25 in1024.4 mb 0.00 in0.0 mm 0.00 in/hr0.0 mm/hr 0.00 in0.0 mm
08:12 AM 34.2°F1.2°C 33.1°F0.6°C 96% 2.9 mph WSW4.7 kmh WSW 4.0 mph6.4 kmh 30.25 in1024.4 mb 0.00 in0.0 mm 0.00 in/hr0.0 mm/hr 0.00 in0.0 mm
08:07 AM 34.0°F1.1°C 32.9°F0.5°C 96% 2.9 mph SW4.7 kmh SW 4.9 mph7.9 kmh 30.25 in1024.4 mb 0.00 in0.0 mm 0.00 in/hr0.0 mm/hr 0.00 in0.0 mm
08:02 AM 34.2°F1.2°C 33.1°F0.6°C 96% 2.9 mph WSW4.7 kmh WSW 6.0 mph9.7 kmh 30.25 in1024.4 mb 0.00 in0.0 mm 0.00 in/hr0.0 mm/hr 0.00 in0.0 mm
07:57 AM 34.0°F1.1°C 32.9°F0.5°C 96% 2.9 mph WSW4.7 kmh WSW 6.0 mph9.7 kmh 30.25 in1024.4 mb 0.00 in0.0 mm 0.00 in/hr0.0 mm/hr 0.00 in0.0 mm
07:52 AM 34.2°F1.2°C 33.1°F0.6°C 96% 2.9 mph WSW4.7 kmh WSW 4.9 mph7.9 kmh 30.25 in1024.4 mb 0.00 in0.0 mm 0.00 in/hr0.0 mm/hr 0.00 in0.0 mm
07:47 AM 34.2°F1.2°C 33.1°F0.6°C 96% 4.0 mph WSW6.4 kmh WSW 4.9 mph7.9 kmh 30.25 in1024.4 mb 0.00 in0.0 mm 0.00 in/hr0.0 mm/hr 0.00 in0.0 mm
07:42 AM 34.2°F1.2°C 33.1°F0.6°C 96% 2.9 mph WSW4.7 kmh WSW 6.0 mph9.7 kmh 30.25 in1024.4 mb 0.00 in0.0 mm 0.00 in/hr0.0 mm/hr 0.00 in0.0 mm
07:37 AM 34.2°F1.2°C 33.1°F0.6°C 96% 2.9 mph WSW4.7 kmh WSW 4.9 mph7.9 kmh 30.25 in1024.4 mb 0.00 in0.0 mm 0.00 in/hr0.0 mm/hr 0.00 in0.0 mm
07:32 AM 34.2°F1.2°C 33.1°F0.6°C 96% 2.9 mph WSW4.7 kmh WSW 4.9 mph7.9 kmh 30.25 in1024.4 mb 0.00 in0.0 mm 0.00 in/hr0.0 mm/hr 0.00 in0.0 mm
07:27 AM 34.3°F1.3°C 33.3°F0.7°C 96% 2.9 mph WSW4.7 kmh WSW 6.0 mph9.7 kmh 30.25 in1024.4 mb 0.00 in0.0 mm 0.00 in/hr0.0 mm/hr 0.00 in0.0 mm
07:22 AM 34.3°F1.3°C 33.6°F0.9°C 97% 4.0 mph WSW6.4 kmh WSW 6.0 mph9.7 kmh 30.25 in1024.4 mb 0.00 in0.0 mm 0.00 in/hr0.0 mm/hr 0.00 in0.0 mm
07:17 AM 34.2°F1.2°C 33.4°F0.8°C 97% 4.0 mph WSW6.4 kmh WSW 6.0 mph9.7 kmh 30.25 in1024.4 mb 0.00 in0.0 mm 0.00 in/hr0.0 mm/hr 0.00 in0.0 mm
07:12 AM 34.2°F1.2°C 33.1°F0.6°C 96% 4.0 mph WSW6.4 kmh WSW 6.9 mph11.1 kmh 30.25 in1024.4 mb 0.00 in0.0 mm 0.00 in/hr0.0 mm/hr 0.00 in0.0 mm
07:07 AM 34.2°F1.2°C 33.1°F0.6°C 96% 2.9 mph WSW4.7 kmh WSW 6.0 mph9.7 kmh 30.25 in1024.4 mb 0.00 in0.0 mm 0.00 in/hr0.0 mm/hr 0.00 in0.0 mm
07:02 AM 34.0°F1.1°C 32.9°F0.5°C 96% 2.9 mph W4.7 kmh W 6.0 mph9.7 kmh 30.25 in1024.4 mb 0.00 in0.0 mm 0.00 in/hr0.0 mm/hr 0.00 in0.0 mm
06:57 AM 34.0°F1.1°C 32.9°F0.5°C 96% 2.9 mph SW4.7 kmh SW 7.0 mph11.3 kmh 30.25 in1024.4 mb 0.00 in0.0 mm 0.00 in/hr0.0 mm/hr 0.00 in0.0 mm
06:52 AM 34.0°F1.1°C 32.9°F0.5°C 96% 2.9 mph WSW4.7 kmh WSW 6.0 mph9.7 kmh 30.25 in1024.4 mb 0.00 in0.0 mm 0.00 in/hr0.0 mm/hr 0.00 in0.0 mm
06:47 AM 34.0°F1.1°C 32.9°F0.5°C 96% 2.9 mph WSW4.7 kmh WSW 5.0 mph8.0 kmh 30.25 in1024.4 mb 0.00 in0.0 mm 0.00 in/hr0.0 mm/hr 0.00 in0.0 mm
06:42 AM 34.0°F1.1°C 32.9°F0.5°C 96% 2.9 mph SW4.7 kmh SW 4.0 mph6.4 kmh 30.25 in1024.4 mb 0.00 in0.0 mm 0.00 in/hr0.0 mm/hr 0.00 in0.0 mm
06:37 AM 34.2°F1.2°C 33.1°F0.6°C 96% 2.9 mph SW4.7 kmh SW 4.9 mph7.9 kmh 30.24 in1024.0 mb 0.00 in0.0 mm 0.00 in/hr0.0 mm/hr 0.00 in0.0 mm
06:32 AM 34.0°F1.1°C 32.9°F0.5°C 96% 2.9 mph WSW4.7 kmh WSW 4.9 mph7.9 kmh 30.24 in1024.0 mb 0.00 in0.0 mm 0.00 in/hr0.0 mm/hr 0.00 in0.0 mm
06:27 AM 34.0°F1.1°C 32.9°F0.5°C 96% 2.9 mph WSW4.7 kmh WSW 4.9 mph7.9 kmh 30.25 in1024.4 mb 0.00 in0.0 mm 0.00 in/hr0.0 mm/hr 0.00 in0.0 mm
06:22 AM 33.8°F1.0°C 33.1°F0.6°C 97% 2.9 mph WSW4.7 kmh WSW 4.0 mph6.4 kmh 30.25 in1024.4 mb 0.00 in0.0 mm 0.00 in/hr0.0 mm/hr 0.00 in0.0 mm
06:17 AM 33.6°F0.9°C 32.9°F0.5°C 97% 2.9 mph SW4.7 kmh SW 4.9 mph7.9 kmh 30.25 in1024.4 mb 0.00 in0.0 mm 0.00 in/hr0.0 mm/hr 0.00 in0.0 mm
06:12 AM 33.6°F0.9°C 32.9°F0.5°C 97% 2.9 mph WSW4.7 kmh WSW 4.9 mph7.9 kmh 30.25 in1024.4 mb 0.00 in0.0 mm 0.00 in/hr0.0 mm/hr 0.00 in0.0 mm
06:07 AM 33.4°F0.8°C 32.4°F0.2°C 96% 2.9 mph SW4.7 kmh SW 6.0 mph9.7 kmh 30.24 in1024.0 mb 0.00 in0.0 mm 0.00 in/hr0.0 mm/hr 0.00 in0.0 mm
06:02 AM 33.4°F0.8°C 32.4°F0.2°C 96% 2.9 mph SW4.7 kmh SW 4.9 mph7.9 kmh 30.24 in1024.0 mb 0.00 in0.0 mm 0.00 in/hr0.0 mm/hr 0.00 in0.0 mm
05:57 AM 33.4°F0.8°C 32.4°F0.2°C 96% 2.9 mph SW4.7 kmh SW 5.0 mph8.0 kmh 30.24 in1024.0 mb 0.00 in0.0 mm 0.00 in/hr0.0 mm/hr 0.00 in0.0 mm
05:52 AM 33.4°F0.8°C 32.4°F0.2°C 96% 2.9 mph SW4.7 kmh SW 4.0 mph6.4 kmh 30.24 in1024.0 mb 0.00 in0.0 mm 0.00 in/hr0.0 mm/hr 0.00 in0.0 mm
05:47 AM 33.4°F0.8°C 32.4°F0.2°C 96% 2.9 mph SW4.7 kmh SW 4.0 mph6.4 kmh 30.24 in1024.0 mb 0.00 in0.0 mm 0.00 in/hr0.0 mm/hr 0.00 in0.0 mm
05:42 AM 33.4°F0.8°C 32.4°F0.2°C 96% 2.9 mph SW4.7 kmh SW 4.0 mph6.4 kmh 30.24 in1024.0 mb 0.00 in0.0 mm 0.00 in/hr0.0 mm/hr 0.00 in0.0 mm
05:37 AM 33.4°F0.8°C 32.4°F0.2°C 96% 2.9 mph WSW4.7 kmh WSW 4.9 mph7.9 kmh 30.24 in1024.0 mb 0.00 in0.0 mm 0.00 in/hr0.0 mm/hr 0.00 in0.0 mm
05:32 AM 33.4°F0.8°C 32.4°F0.2°C 96% 2.9 mph WSW4.7 kmh WSW 4.0 mph6.4 kmh 30.25 in1024.4 mb 0.00 in0.0 mm 0.00 in/hr0.0 mm/hr 0.00 in0.0 mm
05:27 AM 33.6°F0.9°C 32.5°F0.3°C 96% 2.9 mph SW4.7 kmh SW 4.9 mph7.9 kmh 30.25 in1024.4 mb 0.00 in0.0 mm 0.00 in/hr0.0 mm/hr 0.00 in0.0 mm
05:22 AM 33.8°F1.0°C 32.7°F0.4°C 96% 2.9 mph SW4.7 kmh SW 4.9 mph7.9 kmh 30.25 in1024.4 mb 0.00 in0.0 mm 0.00 in/hr0.0 mm/hr 0.00 in0.0 mm
05:17 AM 33.8°F1.0°C 32.7°F0.4°C 96% 2.9 mph SW4.7 kmh SW 6.0 mph9.7 kmh 30.25 in1024.4 mb 0.00 in0.0 mm 0.00 in/hr0.0 mm/hr 0.00 in0.0 mm
05:12 AM 33.8°F1.0°C 32.7°F0.4°C 96% 2.9 mph WSW4.7 kmh WSW 6.0 mph9.7 kmh 30.26 in1024.7 mb 0.00 in0.0 mm 0.00 in/hr0.0 mm/hr 0.00 in0.0 mm
05:07 AM 34.0°F1.1°C 32.9°F0.5°C 96% 2.9 mph WSW4.7 kmh WSW 4.9 mph7.9 kmh 30.26 in1024.7 mb 0.00 in0.0 mm 0.00 in/hr0.0 mm/hr 0.00 in0.0 mm
05:02 AM 34.0°F1.1°C 32.7°F0.4°C 95% 2.9 mph WSW4.7 kmh WSW 4.0 mph6.4 kmh 30.26 in1024.7 mb 0.00 in0.0 mm 0.00 in/hr0.0 mm/hr 0.00 in0.0 mm
04:57 AM 34.0°F1.1°C 32.7°F0.4°C 95% 2.0 mph WSW3.2 kmh WSW 4.0 mph6.4 kmh 30.26 in1024.7 mb 0.00 in0.0 mm 0.00 in/hr0.0 mm/hr 0.00 in0.0 mm
04:52 AM 34.2°F1.2°C 32.9°F0.5°C 95% 2.9 mph WSW4.7 kmh WSW 4.9 mph7.9 kmh 30.26 in1024.7 mb 0.00 in0.0 mm 0.00 in/hr0.0 mm/hr 0.00 in0.0 mm
04:47 AM 34.2°F1.2°C 32.9°F0.5°C 95% 2.9 mph WSW4.7 kmh WSW 4.9 mph7.9 kmh 30.26 in1024.7 mb 0.00 in0.0 mm 0.00 in/hr0.0 mm/hr 0.00 in0.0 mm
04:42 AM 34.3°F1.3°C 33.1°F0.6°C 95% 2.9 mph WSW4.7 kmh WSW 4.9 mph7.9 kmh 30.26 in1024.7 mb 0.00 in0.0 mm 0.00 in/hr0.0 mm/hr 0.00 in0.0 mm
04:37 AM 34.3°F1.3°C 33.1°F0.6°C 95% 2.9 mph WSW4.7 kmh WSW 6.0 mph9.7 kmh 30.27 in1025.1 mb 0.00 in0.0 mm 0.00 in/hr0.0 mm/hr 0.00 in0.0 mm
04:32 AM 34.3°F1.3°C 33.1°F0.6°C 95% 2.9 mph WSW4.7 kmh WSW 4.9 mph7.9 kmh 30.27 in1025.1 mb 0.00 in0.0 mm 0.00 in/hr0.0 mm/hr 0.00 in0.0 mm
04:27 AM 34.5°F1.4°C 33.3°F0.7°C 95% 2.9 mph SW4.7 kmh SW 6.0 mph9.7 kmh 30.27 in1025.1 mb 0.00 in0.0 mm 0.00 in/hr0.0 mm/hr 0.00 in0.0 mm
04:22 AM 34.5°F1.4°C 33.3°F0.7°C 95% 2.9 mph SW4.7 kmh SW 6.0 mph9.7 kmh 30.27 in1025.1 mb 0.00 in0.0 mm 0.00 in/hr0.0 mm/hr 0.00 in0.0 mm
04:17 AM 34.5°F1.4°C 33.3°F0.7°C 95% 2.9 mph WSW4.7 kmh WSW 6.0 mph9.7 kmh 30.27 in1025.1 mb 0.00 in0.0 mm 0.00 in/hr0.0 mm/hr 0.00 in0.0 mm
04:12 AM 34.5°F1.4°C 33.3°F0.7°C 95% 2.9 mph SW4.7 kmh SW 6.0 mph9.7 kmh 30.27 in1025.1 mb 0.00 in0.0 mm 0.00 in/hr0.0 mm/hr 0.00 in0.0 mm
04:07 AM 34.7°F1.5°C 33.4°F0.8°C 95% 2.9 mph WSW4.7 kmh WSW 6.0 mph9.7 kmh 30.27 in1025.1 mb 0.00 in0.0 mm 0.00 in/hr0.0 mm/hr 0.00 in0.0 mm
04:02 AM 34.9°F1.6°C 33.6°F0.9°C 95% 2.9 mph WSW4.7 kmh WSW 7.0 mph11.3 kmh 30.27 in1025.1 mb 0.00 in0.0 mm 0.00 in/hr0.0 mm/hr 0.00 in0.0 mm
03:57 AM 34.9°F1.6°C 33.6°F0.9°C 95% 2.9 mph SW4.7 kmh SW 6.0 mph9.7 kmh 30.27 in1025.1 mb 0.00 in0.0 mm 0.00 in/hr0.0 mm/hr 0.00 in0.0 mm
03:52 AM 34.9°F1.6°C 33.6°F0.9°C 95% 2.9 mph SW4.7 kmh SW 4.9 mph7.9 kmh 30.28 in1025.4 mb 0.00 in0.0 mm 0.00 in/hr0.0 mm/hr 0.00 in0.0 mm
03:47 AM 35.1°F1.7°C 33.8°F1.0°C 95% 2.9 mph WSW4.7 kmh WSW 4.9 mph7.9 kmh 30.28 in1025.4 mb 0.00 in0.0 mm 0.00 in/hr0.0 mm/hr 0.00 in0.0 mm
03:42 AM 35.2°F1.8°C 33.6°F0.9°C 94% 2.9 mph SW4.7 kmh SW 4.9 mph7.9 kmh 30.28 in1025.4 mb 0.00 in0.0 mm 0.00 in/hr0.0 mm/hr 0.00 in0.0 mm
03:37 AM 35.2°F1.8°C 33.6°F0.9°C 94% 2.9 mph SW4.7 kmh SW 6.0 mph9.7 kmh 30.28 in1025.4 mb 0.00 in0.0 mm 0.00 in/hr0.0 mm/hr 0.00 in0.0 mm
03:32 AM 35.2°F1.8°C 33.6°F0.9°C 94% 2.9 mph SW4.7 kmh SW 6.0 mph9.7 kmh 30.28 in1025.4 mb 0.00 in0.0 mm 0.00 in/hr0.0 mm/hr 0.00 in0.0 mm
03:27 AM 35.2°F1.8°C 33.6°F0.9°C 94% 2.9 mph WSW4.7 kmh WSW 6.0 mph9.7 kmh 30.28 in1025.4 mb 0.00 in0.0 mm 0.00 in/hr0.0 mm/hr 0.00 in0.0 mm
03:22 AM 35.2°F1.8°C 33.6°F0.9°C 94% 2.9 mph SW4.7 kmh SW 6.0 mph9.7 kmh 30.28 in1025.4 mb 0.00 in0.0 mm 0.00 in/hr0.0 mm/hr 0.00 in0.0 mm
03:17 AM 35.4°F1.9°C 33.8°F1.0°C 94% 2.9 mph SW4.7 kmh SW 6.9 mph11.1 kmh 30.28 in1025.4 mb 0.00 in0.0 mm 0.00 in/hr0.0 mm/hr 0.00 in0.0 mm
03:12 AM 35.4°F1.9°C 33.8°F1.0°C 94% 4.0 mph WSW6.4 kmh WSW 6.0 mph9.7 kmh 30.28 in1025.4 mb 0.00 in0.0 mm 0.00 in/hr0.0 mm/hr 0.00 in0.0 mm
03:07 AM 35.4°F1.9°C 33.8°F1.0°C 94% 4.0 mph SW6.4 kmh SW 7.0 mph11.3 kmh 30.29 in1025.7 mb 0.00 in0.0 mm 0.00 in/hr0.0 mm/hr 0.00 in0.0 mm
03:02 AM 35.4°F1.9°C 34.2°F1.2°C 95% 2.9 mph WSW4.7 kmh WSW 6.0 mph9.7 kmh 30.29 in1025.7 mb 0.00 in0.0 mm 0.00 in/hr0.0 mm/hr 0.00 in0.0 mm
02:57 AM 35.2°F1.8°C 34.0°F1.1°C 95% 4.0 mph SW6.4 kmh SW 6.0 mph9.7 kmh 30.29 in1025.7 mb 0.00 in0.0 mm 0.00 in/hr0.0 mm/hr 0.00 in0.0 mm
02:52 AM 35.2°F1.8°C 34.0°F1.1°C 95% 4.0 mph WSW6.4 kmh WSW 6.9 mph11.1 kmh 30.29 in1025.7 mb 0.00 in0.0 mm 0.00 in/hr0.0 mm/hr 0.00 in0.0 mm
02:47 AM 35.1°F1.7°C 33.8°F1.0°C 95% 2.9 mph WSW4.7 kmh WSW 6.9 mph11.1 kmh 30.29 in1025.7 mb 0.00 in0.0 mm 0.00 in/hr0.0 mm/hr 0.00 in0.0 mm
02:42 AM 34.7°F1.5°C 33.4°F0.8°C 95% 2.9 mph WSW4.7 kmh WSW 4.9 mph7.9 kmh 30.29 in1025.7 mb 0.00 in0.0 mm 0.00 in/hr0.0 mm/hr 0.00 in0.0 mm
02:37 AM 34.5°F1.4°C 33.3°F0.7°C 95% 2.0 mph WSW3.2 kmh WSW 4.9 mph7.9 kmh 30.29 in1025.7 mb 0.00 in0.0 mm 0.00 in/hr0.0 mm/hr 0.00 in0.0 mm
02:32 AM 34.7°F1.5°C 33.4°F0.8°C 95% 2.0 mph SW3.2 kmh SW 4.0 mph6.4 kmh 30.29 in1025.7 mb 0.00 in0.0 mm 0.00 in/hr0.0 mm/hr 0.00 in0.0 mm
02:27 AM 34.9°F1.6°C 33.6°F0.9°C 95% 2.0 mph SW3.2 kmh SW 4.0 mph6.4 kmh 30.29 in1025.7 mb 0.00 in0.0 mm 0.00 in/hr0.0 mm/hr 0.00 in0.0 mm
02:22 AM 34.9°F1.6°C 33.6°F0.9°C 95% 2.0 mph SW3.2 kmh SW 4.0 mph6.4 kmh 30.29 in1025.7 mb 0.00 in0.0 mm 0.00 in/hr0.0 mm/hr 0.00 in0.0 mm
02:17 AM 35.1°F1.7°C 33.8°F1.0°C 95% 2.9 mph SW4.7 kmh SW 4.0 mph6.4 kmh 30.29 in1025.7 mb 0.00 in0.0 mm 0.00 in/hr0.0 mm/hr 0.00 in0.0 mm
02:12 AM 35.1°F1.7°C 33.8°F1.0°C 95% 2.9 mph WSW4.7 kmh WSW 4.9 mph7.9 kmh 30.29 in1025.7 mb 0.00 in0.0 mm 0.00 in/hr0.0 mm/hr 0.00 in0.0 mm
02:07 AM 34.9°F1.6°C 33.6°F0.9°C 95% 2.0 mph SW3.2 kmh SW 4.9 mph7.9 kmh 30.29 in1025.7 mb 0.00 in0.0 mm 0.00 in/hr0.0 mm/hr 0.00 in0.0 mm
02:02 AM 34.9°F1.6°C 33.8°F1.0°C 96% 2.0 mph WSW3.2 kmh WSW 2.9 mph4.7 kmh 30.30 in1026.1 mb 0.00 in0.0 mm 0.00 in/hr0.0 mm/hr 0.00 in0.0 mm
01:57 AM 34.9°F1.6°C 33.8°F1.0°C 96% 2.0 mph SW3.2 kmh SW 4.0 mph6.4 kmh 30.30 in1026.1 mb 0.00 in0.0 mm 0.00 in/hr0.0 mm/hr 0.00 in0.0 mm
01:52 AM 34.7°F1.5°C 33.6°F0.9°C 96% 2.0 mph SW3.2 kmh SW 2.9 mph4.7 kmh 30.30 in1026.1 mb 0.00 in0.0 mm 0.00 in/hr0.0 mm/hr 0.00 in0.0 mm
01:47 AM 34.5°F1.4°C 33.3°F0.7°C 95% 0.9 mph SW1.4 kmh SW 4.0 mph6.4 kmh 30.30 in1026.1 mb 0.00 in0.0 mm 0.00 in/hr0.0 mm/hr 0.00 in0.0 mm
01:42 AM 34.5°F1.4°C 33.3°F0.7°C 95% 0.9 mph SW1.4 kmh SW 2.9 mph4.7 kmh 30.30 in1026.1 mb 0.00 in0.0 mm 0.00 in/hr0.0 mm/hr 0.00 in0.0 mm
01:37 AM 34.3°F1.3°C 33.1°F0.6°C 95% 0.9 mph SW1.4 kmh SW 2.9 mph4.7 kmh 30.30 in1026.1 mb 0.00 in0.0 mm 0.00 in/hr0.0 mm/hr 0.00 in0.0 mm
01:32 AM 34.3°F1.3°C 33.1°F0.6°C 95% 2.0 mph SSW3.2 kmh SSW 2.9 mph4.7 kmh 30.30 in1026.1 mb 0.00 in0.0 mm 0.00 in/hr0.0 mm/hr 0.00 in0.0 mm
01:27 AM 34.3°F1.3°C 33.1°F0.6°C 95% 2.0 mph SW3.2 kmh SW 2.9 mph4.7 kmh 30.30 in1026.1 mb 0.00 in0.0 mm 0.00 in/hr0.0 mm/hr 0.00 in0.0 mm
01:22 AM 34.3°F1.3°C 32.7°F0.4°C 94% 2.0 mph SW3.2 kmh SW 2.9 mph4.7 kmh 30.30 in1026.1 mb 0.00 in0.0 mm 0.00 in/hr0.0 mm/hr 0.00 in0.0 mm
01:17 AM 34.5°F1.4°C 32.9°F0.5°C 94% 2.0 mph SW3.2 kmh SW 2.9 mph4.7 kmh 30.30 in1026.1 mb 0.00 in0.0 mm 0.00 in/hr0.0 mm/hr 0.00 in0.0 mm
01:12 AM 34.5°F1.4°C 32.9°F0.5°C 94% 2.0 mph SW3.2 kmh SW 4.0 mph6.4 kmh 30.30 in1026.1 mb 0.00 in0.0 mm 0.00 in/hr0.0 mm/hr 0.00 in0.0 mm
01:07 AM 34.7°F1.5°C 33.1°F0.6°C 94% 2.0 mph SW3.2 kmh SW 2.9 mph4.7 kmh 30.30 in1026.1 mb 0.00 in0.0 mm 0.00 in/hr0.0 mm/hr 0.00 in0.0 mm
01:02 AM 34.9°F1.6°C 33.3°F0.7°C 94% 2.0 mph SW3.2 kmh SW 4.0 mph6.4 kmh 30.30 in1026.1 mb 0.00 in0.0 mm 0.00 in/hr0.0 mm/hr 0.00 in0.0 mm
12:57 AM 35.1°F1.7°C 33.3°F0.7°C 93% 2.0 mph SW3.2 kmh SW 4.0 mph6.4 kmh 30.30 in1026.1 mb 0.00 in0.0 mm 0.00 in/hr0.0 mm/hr 0.00 in0.0 mm
12:52 AM 35.2°F1.8°C 33.4°F0.8°C 93% 2.0 mph SW3.2 kmh SW 4.0 mph6.4 kmh 30.30 in1026.1 mb 0.00 in0.0 mm 0.00 in/hr0.0 mm/hr 0.00 in0.0 mm
12:47 AM 35.2°F1.8°C 33.6°F0.9°C 94% 2.0 mph SW3.2 kmh SW 4.0 mph6.4 kmh 30.30 in1026.1 mb 0.00 in0.0 mm 0.00 in/hr0.0 mm/hr 0.00 in0.0 mm
12:42 AM 35.2°F1.8°C 33.6°F0.9°C 94% 2.9 mph SW4.7 kmh SW 4.0 mph6.4 kmh 30.30 in1026.1 mb 0.00 in0.0 mm 0.00 in/hr0.0 mm/hr 0.00 in0.0 mm
12:37 AM 35.1°F1.7°C 33.4°F0.8°C 94% 2.9 mph SW4.7 kmh SW 4.9 mph7.9 kmh 30.30 in1026.1 mb 0.00 in0.0 mm 0.00 in/hr0.0 mm/hr 0.00 in0.0 mm
12:32 AM 35.1°F1.7°C 33.3°F0.7°C 93% 2.9 mph SW4.7 kmh SW 4.9 mph7.9 kmh 30.30 in1026.1 mb 0.00 in0.0 mm 0.00 in/hr0.0 mm/hr 0.00 in0.0 mm
12:27 AM 35.2°F1.8°C 33.4°F0.8°C 93% 2.0 mph WSW3.2 kmh WSW 4.9 mph7.9 kmh 30.30 in1026.1 mb 0.00 in0.0 mm 0.00 in/hr0.0 mm/hr 0.00 in0.0 mm
12:22 AM 35.2°F1.8°C 33.4°F0.8°C 93% 2.0 mph SW3.2 kmh SW 4.0 mph6.4 kmh 30.30 in1026.1 mb 0.00 in0.0 mm 0.00 in/hr0.0 mm/hr 0.00 in0.0 mm
12:17 AM 35.4°F1.9°C 33.6°F0.9°C 93% 2.0 mph S3.2 kmh S 4.0 mph6.4 kmh 30.30 in1026.1 mb 0.00 in0.0 mm 0.00 in/hr0.0 mm/hr 0.00 in0.0 mm
12:12 AM 35.4°F1.9°C 33.8°F1.0°C 94% 2.0 mph WSW3.2 kmh WSW 4.0 mph6.4 kmh 30.30 in1026.1 mb 0.00 in0.0 mm 0.00 in/hr0.0 mm/hr 0.00 in0.0 mm
12:07 AM 35.2°F1.8°C 33.6°F0.9°C 94% 2.0 mph SW3.2 kmh SW 4.0 mph6.4 kmh 30.30 in1026.1 mb 0.00 in0.0 mm 0.00 in/hr0.0 mm/hr 0.00 in0.0 mm
12:02 AM 35.2°F1.8°C 33.6°F0.9°C 94% 2.9 mph SW4.7 kmh SW 4.9 mph7.9 kmh 30.30 in1026.1 mb 0.00 in0.0 mm 0.00 in/hr0.0 mm/hr 0.00 in0.0 mm